createdAt,value
2022-08-26T00:00:51.853Z,16.00
2022-08-26T00:03:23.913Z,17.35
2022-08-26T00:05:54.146Z,16.15
2022-08-26T00:08:23.509Z,15.60
2022-08-26T00:10:52.181Z,16.23
2022-08-26T00:13:20.917Z,14.07
2022-08-26T00:15:51.226Z,13.52
2022-08-26T00:18:22.342Z,13.00
2022-08-26T00:20:52.797Z,20.98
2022-08-26T00:23:24.114Z,15.23
2022-08-26T00:25:53.492Z,13.57
2022-08-26T00:28:23.305Z,16.17
2022-08-26T00:30:52.677Z,17.70
2022-08-26T00:33:22.983Z,13.77
2022-08-26T00:35:53.413Z,15.15
2022-08-26T00:38:22.998Z,14.65
2022-08-26T00:40:55.143Z,13.93
2022-08-26T00:43:25.156Z,17.00
2022-08-26T00:45:59.805Z,15.88
2022-08-26T00:48:34.982Z,17.20
2022-08-26T00:51:10.194Z,16.13
2022-08-26T00:53:45.496Z,16.33
2022-08-26T00:56:21.563Z,15.38
2022-08-26T00:58:51.858Z,14.82
2022-08-26T01:01:22.948Z,16.23
2022-08-26T01:03:52.249Z,15.65
2022-08-26T01:06:22.826Z,18.00
2022-08-26T01:08:52.873Z,18.20
2022-08-26T01:11:21.914Z,13.95
2022-08-26T01:13:54.690Z,18.80
2022-08-26T01:16:25.842Z,14.13
2022-08-26T01:18:58.568Z,16.95
2022-08-26T01:21:32.589Z,15.95
2022-08-26T01:24:03.027Z,15.77
2022-08-26T01:26:35.467Z,18.63
2022-08-26T01:29:07.236Z,16.67
2022-08-26T01:31:41.688Z,18.52
2022-08-26T01:34:17.390Z,19.02
2022-08-26T01:36:51.059Z,20.45
2022-08-26T01:39:22.101Z,17.75
2022-08-26T01:41:54.675Z,14.07
2022-08-26T01:44:29.224Z,15.20
2022-08-26T01:46:59.463Z,15.55
2022-08-26T01:49:28.927Z,16.60
2022-08-26T01:52:02.040Z,18.90
2022-08-26T01:54:33.896Z,17.60
2022-08-26T01:57:03.681Z,15.60
2022-08-26T01:59:32.789Z,15.82
2022-08-26T02:02:01.649Z,18.27
2022-08-26T02:04:34.615Z,16.52
2022-08-26T02:07:07.503Z,17.95
2022-08-26T02:09:41.199Z,15.90
2022-08-26T02:12:11.924Z,15.20
2022-08-26T02:14:44.514Z,15.13
2022-08-26T02:17:13.986Z,16.50
2022-08-26T02:19:47.241Z,14.30
2022-08-26T02:22:20.756Z,14.07
2022-08-26T02:24:53.116Z,14.52
2022-08-26T02:27:25.750Z,14.82
2022-08-26T02:29:59.679Z,14.32
2022-08-26T02:32:30.090Z,13.93
2022-08-26T02:34:58.756Z,15.88
2022-08-26T02:37:31.039Z,15.07
2022-08-26T02:40:01.430Z,15.35
2022-08-26T02:42:30.512Z,14.18
2022-08-26T02:44:59.757Z,13.25
2022-08-26T02:47:29.208Z,15.63
2022-08-26T02:50:00.349Z,16.85
2022-08-26T02:52:29.263Z,16.80
2022-08-26T02:54:57.917Z,14.88
2022-08-26T02:57:27.981Z,17.52
2022-08-26T02:59:56.628Z,17.30
2022-08-26T03:02:25.438Z,17.27
2022-08-26T03:04:58.140Z,12.85
2022-08-26T03:07:32.281Z,15.77
2022-08-26T03:10:01.093Z,16.13
2022-08-26T03:12:37.396Z,15.60
2022-08-26T03:15:17.546Z,17.83
2022-08-26T03:17:49.109Z,14.75
2022-08-26T03:20:19.903Z,14.43
2022-08-26T03:22:51.387Z,15.57
2022-08-26T03:25:22.250Z,15.55
2022-08-26T03:27:54.526Z,17.88
2022-08-26T03:30:44.220Z,16.73
2022-08-26T03:33:15.180Z,15.88
2022-08-26T03:35:47.363Z,17.48
2022-08-26T03:38:16.865Z,17.42
2022-08-26T03:40:45.544Z,15.80
2022-08-26T03:43:16.955Z,16.33
2022-08-26T03:45:46.112Z,15.20
2022-08-26T03:48:15.612Z,17.33
2022-08-26T03:50:44.385Z,16.80
2022-08-26T03:53:13.467Z,13.98
2022-08-26T03:55:43.426Z,14.65
2022-08-26T03:58:12.399Z,14.35
2022-08-26T04:00:42.631Z,13.80
2022-08-26T04:03:18.532Z,13.75
2022-08-26T04:05:47.478Z,17.98
2022-08-26T04:08:16.168Z,15.73
2022-08-26T04:10:44.978Z,16.13
2022-08-26T04:13:13.818Z,16.33
2022-08-26T04:15:43.968Z,14.60
2022-08-26T04:18:13.459Z,14.25
2022-08-26T04:20:42.336Z,16.20
2022-08-26T04:23:11.455Z,14.75
2022-08-26T04:25:40.582Z,15.35
2022-08-26T04:28:09.358Z,17.30
2022-08-26T04:30:38.576Z,16.98
2022-08-26T04:33:12.877Z,14.30
2022-08-26T04:35:44.020Z,15.25
2022-08-26T04:38:12.802Z,18.20
2022-08-26T04:40:46.652Z,15.50
2022-08-26T04:43:16.373Z,15.63
2022-08-26T04:45:45.106Z,15.10
2022-08-26T04:48:16.840Z,16.08
2022-08-26T04:50:49.583Z,16.90
2022-08-26T04:53:18.376Z,16.13
2022-08-26T04:55:48.418Z,17.33
2022-08-26T04:58:18.185Z,15.68
2022-08-26T05:00:48.531Z,16.70
2022-08-26T05:03:19.334Z,16.27
2022-08-26T05:05:50.821Z,14.02
2022-08-26T05:08:22.388Z,15.55
2022-08-26T05:10:56.541Z,17.80
2022-08-26T05:13:27.298Z,15.25
2022-08-26T05:16:01.282Z,15.50
2022-08-26T05:18:31.661Z,16.13
2022-08-26T05:21:00.858Z,16.48
2022-08-26T05:23:31.989Z,15.93
2022-08-26T05:26:01.370Z,17.40
2022-08-26T05:28:33.647Z,15.63
2022-08-26T05:31:02.845Z,19.55
2022-08-26T05:33:32.985Z,18.15
2022-08-26T05:36:08.122Z,18.33
2022-08-26T05:38:38.013Z,19.00
2022-08-26T05:41:15.734Z,18.42
2022-08-26T05:43:45.959Z,16.55
2022-08-26T05:46:15.131Z,19.02
2022-08-26T05:48:46.847Z,23.20
2022-08-26T05:51:16.306Z,21.25
2022-08-26T05:53:54.497Z,17.73
2022-08-26T05:56:27.570Z,21.40
2022-08-26T05:58:58.501Z,22.75
2022-08-26T06:01:29.895Z,22.48
2022-08-26T06:04:02.021Z,21.13
2022-08-26T06:06:32.854Z,38.97
2022-08-26T06:09:04.077Z,45.97
2022-08-26T06:11:33.354Z,74.15
2022-08-26T06:14:05.906Z,56.83
2022-08-26T06:16:38.258Z,47.78
2022-08-26T06:19:10.623Z,40.30
2022-08-26T06:21:41.709Z,34.15
2022-08-26T06:24:31.178Z,30.58
2022-08-26T06:27:03.247Z,28.42
2022-08-26T06:29:34.540Z,26.70
2022-08-26T06:32:06.837Z,37.55
2022-08-26T06:34:36.993Z,60.85
2022-08-26T06:37:06.258Z,84.60
2022-08-26T06:39:35.518Z,41.67
2022-08-26T06:42:10.900Z,28.25
2022-08-26T06:44:41.648Z,27.50
2022-08-26T06:47:13.561Z,23.50
2022-08-26T06:49:44.311Z,26.20
2022-08-26T06:52:13.188Z,24.08
2022-08-26T06:54:43.206Z,28.77
2022-08-26T06:57:14.371Z,32.47
2022-08-26T06:59:45.614Z,28.88
2022-08-26T07:02:15.130Z,26.48
2022-08-26T07:04:48.108Z,28.17
2022-08-26T07:07:21.983Z,27.42
2022-08-26T07:09:52.389Z,29.50
2022-08-26T07:12:21.458Z,22.67
2022-08-26T07:14:50.795Z,26.30
2022-08-26T07:17:20.467Z,31.05
2022-08-26T07:19:50.741Z,24.83
2022-08-26T07:22:21.358Z,26.65
2022-08-26T07:24:50.222Z,25.75
2022-08-26T07:27:19.091Z,34.10
2022-08-26T07:29:47.807Z,26.95
2022-08-26T07:32:20.917Z,31.60
2022-08-26T07:34:53.076Z,24.42
2022-08-26T07:37:22.724Z,27.70
2022-08-26T07:39:52.148Z,28.25
2022-08-26T07:42:20.994Z,30.10
2022-08-26T07:44:50.211Z,27.15
2022-08-26T07:47:24.687Z,27.77
2022-08-26T07:49:57.398Z,22.73
2022-08-26T07:52:28.377Z,31.10
2022-08-26T07:54:58.168Z,23.35
2022-08-26T07:57:27.677Z,25.65
2022-08-26T07:59:57.211Z,27.83
2022-08-26T08:02:28.087Z,24.70
2022-08-26T08:04:58.874Z,22.92
2022-08-26T08:07:44.161Z,25.73
2022-08-26T08:10:15.573Z,25.15
2022-08-26T08:12:45.084Z,27.23
2022-08-26T08:15:15.436Z,22.42
2022-08-26T08:17:44.677Z,27.60
2022-08-26T08:20:16.266Z,24.27
2022-08-26T08:22:45.565Z,23.58
2022-08-26T08:25:16.420Z,24.90
2022-08-26T08:27:46.357Z,27.60
2022-08-26T08:30:22.683Z,22.70
2022-08-26T08:32:52.338Z,18.63
2022-08-26T08:35:24.134Z,22.25
2022-08-26T08:37:55.525Z,20.38
2022-08-26T08:40:26.803Z,20.23
2022-08-26T08:43:02.368Z,18.85
2022-08-26T08:45:39.449Z,19.58
2022-08-26T08:48:15.337Z,20.25
2022-08-26T08:50:50.168Z,18.92
2022-08-26T08:53:22.658Z,16.55
2022-08-26T08:56:05.769Z,22.60
2022-08-26T08:58:47.087Z,17.30
2022-08-26T09:01:26.476Z,17.95
2022-08-26T09:04:10.443Z,23.58
2022-08-26T09:06:42.754Z,19.45
2022-08-26T09:09:18.677Z,22.88
2022-08-26T09:11:47.689Z,17.73
2022-08-26T09:14:16.405Z,17.98
2022-08-26T09:16:51.677Z,23.73
2022-08-26T09:19:31.080Z,24.33
2022-08-26T09:22:05.744Z,20.05
2022-08-26T09:24:41.626Z,20.33
2022-08-26T09:27:11.650Z,28.77
2022-08-26T09:29:44.309Z,22.15
2022-08-26T09:32:21.867Z,20.48
2022-08-26T09:34:57.991Z,24.58
2022-08-26T09:37:41.445Z,22.75
2022-08-26T09:40:27.155Z,22.35
2022-08-26T09:43:09.313Z,19.35
2022-08-26T09:45:38.994Z,18.95
2022-08-26T09:48:09.489Z,21.00
2022-08-26T09:50:51.361Z,18.13
2022-08-26T09:53:28.825Z,20.08
2022-08-26T09:56:17.963Z,20.10
2022-08-26T09:58:48.547Z,25.58
2022-08-26T10:01:26.908Z,19.42
2022-08-26T10:04:08.538Z,23.25
2022-08-26T10:06:41.999Z,18.58
2022-08-26T10:09:18.133Z,18.85
2022-08-26T10:11:51.271Z,18.20
2022-08-26T10:14:25.254Z,18.05
2022-08-26T10:17:01.062Z,23.42
2022-08-26T10:19:41.769Z,23.38
2022-08-26T10:22:28.077Z,19.88
2022-08-26T10:25:03.087Z,18.45
2022-08-26T10:27:48.361Z,18.35
2022-08-26T10:30:23.883Z,18.77
2022-08-26T10:32:57.741Z,26.38
2022-08-26T10:35:27.069Z,17.77
2022-08-26T10:38:01.625Z,22.85
2022-08-26T10:40:42.041Z,18.77
2022-08-26T10:43:15.237Z,26.17
2022-08-26T10:45:48.890Z,19.13
2022-08-26T10:48:24.413Z,14.70
2022-08-26T10:50:53.813Z,16.63
2022-08-26T10:53:32.756Z,21.35
2022-08-26T10:56:18.802Z,17.70
2022-08-26T10:58:56.970Z,14.63
2022-08-26T11:01:46.957Z,17.00
2022-08-26T11:04:38.445Z,16.35
2022-08-26T11:07:33.463Z,18.15
2022-08-26T11:10:04.154Z,16.33
2022-08-26T11:16:11.512Z,13.20
2022-08-26T11:18:46.143Z,17.90
2022-08-26T11:22:06.022Z,20.98
2022-08-26T11:25:01.551Z,13.63
2022-08-26T11:27:56.550Z,23.25
2022-08-26T11:30:57.027Z,22.17
2022-08-26T11:33:59.621Z,20.75
2022-08-26T11:36:40.898Z,23.08
2022-08-26T11:39:20.692Z,15.63
2022-08-26T11:41:53.089Z,16.20
2022-08-26T11:44:24.458Z,20.90
2022-08-26T11:46:55.731Z,21.05
2022-08-26T11:49:26.306Z,18.52
2022-08-26T11:52:09.935Z,15.35
2022-08-26T11:54:38.999Z,17.10
2022-08-26T11:57:13.397Z,13.00
2022-08-26T11:59:43.503Z,16.77
2022-08-26T12:02:15.970Z,17.83
2022-08-26T12:04:51.732Z,20.92
2022-08-26T12:07:25.265Z,17.73
2022-08-26T12:09:57.211Z,16.63
2022-08-26T12:12:34.546Z,17.42
2022-08-26T12:15:14.607Z,17.27
2022-08-26T12:17:44.779Z,18.92
2022-08-26T12:20:45.709Z,18.65
2022-08-26T12:23:26.865Z,14.98
2022-08-26T12:26:06.155Z,18.23
2022-08-26T12:28:35.121Z,17.90
2022-08-26T12:31:07.410Z,17.58
2022-08-26T12:33:36.996Z,17.75
2022-08-26T12:36:07.652Z,19.95
2022-08-26T12:38:40.408Z,14.82
2022-08-26T12:41:09.292Z,17.27
2022-08-26T12:43:42.031Z,18.98
2022-08-26T12:46:13.342Z,15.82
2022-08-26T12:48:45.759Z,13.73
2022-08-26T12:51:24.111Z,18.50
2022-08-26T12:53:53.757Z,16.95
2022-08-26T12:56:28.754Z,19.80
2022-08-26T12:59:12.187Z,19.67
2022-08-26T13:01:44.428Z,17.88
2022-08-26T13:04:32.870Z,17.10
2022-08-26T13:07:21.172Z,16.83
2022-08-26T13:09:51.699Z,18.15
2022-08-26T13:12:32.832Z,17.15
2022-08-26T13:15:02.779Z,14.60
2022-08-26T13:17:34.298Z,17.20
2022-08-26T13:20:04.424Z,16.58
2022-08-26T13:22:35.321Z,14.65
2022-08-26T13:25:04.133Z,18.38
2022-08-26T13:27:32.920Z,13.18
2022-08-26T13:30:01.738Z,13.90
2022-08-26T13:32:32.773Z,14.32
2022-08-26T13:35:05.735Z,15.23
2022-08-26T13:37:36.391Z,14.73
2022-08-26T13:40:07.211Z,16.30
2022-08-26T13:42:36.060Z,19.05
2022-08-26T13:45:06.483Z,12.40
2022-08-26T13:47:36.408Z,14.30
2022-08-26T13:50:06.492Z,17.60
2022-08-26T13:52:36.554Z,17.98
2022-08-26T13:55:06.755Z,11.30
2022-08-26T13:57:35.497Z,7.72
2022-08-26T14:00:05.048Z,8.50
2022-08-26T14:02:37.853Z,7.70
2022-08-26T14:05:07.719Z,8.25
2022-08-26T14:07:37.897Z,15.70
2022-08-26T14:10:07.795Z,13.93
2022-08-26T14:12:36.611Z,15.35
2022-08-26T14:15:05.967Z,8.80
2022-08-26T14:17:34.837Z,8.88
2022-08-26T14:20:05.074Z,9.73
2022-08-26T14:22:34.143Z,5.60
2022-08-26T14:25:04.242Z,9.40
2022-08-26T14:27:34.748Z,6.85
2022-08-26T14:30:03.465Z,10.82
2022-08-26T14:32:33.392Z,7.47
2022-08-26T14:35:02.810Z,9.93
2022-08-26T14:37:31.901Z,11.15
2022-08-26T14:40:00.840Z,16.25
2022-08-26T14:42:31.353Z,12.57
2022-08-26T14:45:03.874Z,13.65
2022-08-26T14:47:33.060Z,11.70
2022-08-26T14:50:02.622Z,8.18
2022-08-26T14:52:52.050Z,7.38
2022-08-26T14:55:19.845Z,7.80
2022-08-26T14:57:50.524Z,8.85
2022-08-26T15:00:19.769Z,11.18
2022-08-26T15:02:48.645Z,12.05
2022-08-26T15:05:17.519Z,10.02
2022-08-26T15:07:46.751Z,11.95
2022-08-26T15:10:16.888Z,9.45
2022-08-26T15:12:46.003Z,10.07
2022-08-26T15:15:18.575Z,13.10
2022-08-26T15:17:47.331Z,12.60
2022-08-26T15:20:18.228Z,12.75
2022-08-26T15:22:47.000Z,11.88
2022-08-26T15:25:15.919Z,10.90
2022-08-26T15:27:44.567Z,11.35
2022-08-26T15:30:16.608Z,10.15
2022-08-26T15:32:45.430Z,11.32
2022-08-26T15:35:14.107Z,9.07
2022-08-26T15:37:42.874Z,7.43
2022-08-26T15:40:12.404Z,15.13
2022-08-26T15:42:41.550Z,12.63
2022-08-26T15:45:10.998Z,11.05
2022-08-26T15:48:00.733Z,12.80
2022-08-26T15:50:30.119Z,7.35
2022-08-26T15:52:59.635Z,9.05
2022-08-26T15:55:28.498Z,8.88
2022-08-26T15:57:57.183Z,8.70
2022-08-26T16:00:27.152Z,10.82
2022-08-26T16:02:57.224Z,8.63
2022-08-26T16:05:25.967Z,12.40
2022-08-26T16:07:55.029Z,14.90
2022-08-26T16:10:23.915Z,14.77
2022-08-26T16:12:53.880Z,15.77
2022-08-26T16:15:22.546Z,17.52
2022-08-26T16:17:51.284Z,12.07
2022-08-26T16:20:21.362Z,13.68
2022-08-26T16:22:50.160Z,11.38
2022-08-26T16:25:18.907Z,14.20
2022-08-26T16:27:47.928Z,15.15
2022-08-26T16:30:16.991Z,12.25
2022-08-26T16:32:45.746Z,13.05
2022-08-26T16:35:14.792Z,14.48
2022-08-26T16:37:45.807Z,11.18
2022-08-26T16:40:14.580Z,15.20
2022-08-26T16:42:43.353Z,13.63
2022-08-26T16:45:12.658Z,13.80
2022-08-26T16:47:41.731Z,16.75
2022-08-26T16:50:12.912Z,18.77
2022-08-26T16:52:42.461Z,15.00
2022-08-26T16:55:16.177Z,16.20
2022-08-26T16:57:46.154Z,13.02
2022-08-26T17:00:18.701Z,17.15
2022-08-26T17:02:47.669Z,12.68
2022-08-26T17:05:16.879Z,15.50
2022-08-26T17:07:46.083Z,15.13
2022-08-26T17:10:16.319Z,14.68
2022-08-26T17:12:45.133Z,18.90
2022-08-26T17:15:15.168Z,13.40
2022-08-26T17:17:44.161Z,17.17
2022-08-26T17:20:16.350Z,13.43
2022-08-26T17:22:48.213Z,14.27
2022-08-26T17:25:21.139Z,16.30
2022-08-26T17:27:50.025Z,16.30
2022-08-26T17:30:19.244Z,14.52
2022-08-26T17:32:48.102Z,13.18
2022-08-26T17:35:17.648Z,15.00
2022-08-26T17:37:47.610Z,13.68
2022-08-26T17:40:20.455Z,13.93
2022-08-26T17:42:49.700Z,14.23
2022-08-26T17:47:47.219Z,11.63
2022-08-26T17:50:18.165Z,11.95
2022-08-26T17:52:46.960Z,13.15
2022-08-26T17:55:17.963Z,12.30
2022-08-26T17:57:53.268Z,15.18
2022-08-26T18:00:26.401Z,14.27
2022-08-26T18:02:55.449Z,14.10
2022-08-26T18:05:24.790Z,14.52
2022-08-26T18:07:54.376Z,12.90
2022-08-26T18:10:25.537Z,14.32
2022-08-26T18:12:55.675Z,13.52
2022-08-26T18:15:24.859Z,12.43
2022-08-26T18:17:53.694Z,16.30
2022-08-26T18:20:22.869Z,13.13
2022-08-26T18:22:51.579Z,15.30
2022-08-26T18:25:20.573Z,16.33
2022-08-26T18:27:49.309Z,16.00
2022-08-26T18:30:22.120Z,16.55
2022-08-26T18:32:51.943Z,16.73
2022-08-26T18:35:21.322Z,14.48
2022-08-26T18:37:50.227Z,15.93
2022-08-26T18:40:19.012Z,19.13
2022-08-26T18:42:49.380Z,17.85
2022-08-26T18:45:24.429Z,15.70
2022-08-26T18:47:53.245Z,15.88
2022-08-26T18:50:22.083Z,13.77
2022-08-26T18:52:50.801Z,16.15
2022-08-26T18:55:19.590Z,15.68
2022-08-26T18:57:48.309Z,16.88
2022-08-26T19:00:17.581Z,17.27
2022-08-26T19:02:52.258Z,16.08
2022-08-26T19:05:25.501Z,14.02
2022-08-26T19:07:56.508Z,15.27
2022-08-26T19:10:25.624Z,13.75
2022-08-26T19:12:56.321Z,17.25
2022-08-26T19:15:27.464Z,15.60
2022-08-26T19:17:57.544Z,16.10
2022-08-26T19:20:26.234Z,13.48
2022-08-26T19:22:57.453Z,14.18
2022-08-26T19:25:28.488Z,16.27
2022-08-26T19:27:57.630Z,16.40
2022-08-26T19:30:26.448Z,17.08
2022-08-26T19:32:59.573Z,16.95
2022-08-26T19:35:30.712Z,16.92
2022-08-26T19:37:59.502Z,17.25
2022-08-26T19:40:29.239Z,16.08
2022-08-26T19:42:58.057Z,15.73
2022-08-26T19:45:27.141Z,17.73
2022-08-26T19:47:56.103Z,15.40
2022-08-26T19:50:27.784Z,15.13
2022-08-26T19:52:56.596Z,15.23
2022-08-26T19:55:27.361Z,15.77
2022-08-26T19:57:56.140Z,15.45
2022-08-26T20:00:26.955Z,12.77
2022-08-26T20:02:56.763Z,18.25
2022-08-26T20:05:28.285Z,17.38
2022-08-26T20:07:57.465Z,15.85
2022-08-26T20:10:26.955Z,14.60
2022-08-26T20:12:56.363Z,18.45
2022-08-26T20:15:25.359Z,16.33
2022-08-26T20:17:57.861Z,14.10
2022-08-26T20:20:45.221Z,12.77
2022-08-26T20:23:14.063Z,12.55
2022-08-26T20:25:43.205Z,16.27
2022-08-26T20:28:12.148Z,12.75
2022-08-26T20:30:40.954Z,13.68
2022-08-26T20:33:09.684Z,14.57
2022-08-26T20:35:39.780Z,15.35
2022-08-26T20:38:10.463Z,17.77
2022-08-26T20:40:39.879Z,16.75
2022-08-26T20:43:08.669Z,13.18
2022-08-26T20:45:37.691Z,12.02
2022-08-26T20:48:06.818Z,11.07
2022-08-26T20:50:35.807Z,15.68
2022-08-26T20:53:06.001Z,11.52
2022-08-26T20:55:34.790Z,15.70
2022-08-26T20:58:03.727Z,12.57
2022-08-26T21:00:32.973Z,12.13
2022-08-26T21:03:01.722Z,15.40
2022-08-26T21:05:30.483Z,14.60
2022-08-26T21:07:59.267Z,15.38
2022-08-26T21:10:30.495Z,14.48
2022-08-26T21:12:59.532Z,15.02
2022-08-26T21:15:28.383Z,12.98
2022-08-26T21:17:57.161Z,18.30
2022-08-26T21:20:26.218Z,11.85
2022-08-26T21:22:54.977Z,15.48
2022-08-26T21:25:24.004Z,14.77
2022-08-26T21:27:55.635Z,13.70
2022-08-26T21:30:24.894Z,14.30
2022-08-26T21:32:53.887Z,13.68
2022-08-26T21:35:22.967Z,15.20
2022-08-26T21:37:51.723Z,15.20
2022-08-26T21:40:20.772Z,14.15
2022-08-26T21:42:49.847Z,13.40
2022-08-26T21:45:20.190Z,15.10
2022-08-26T21:47:48.952Z,14.02
2022-08-26T21:50:17.898Z,14.85
2022-08-26T21:52:47.310Z,13.23
2022-08-26T21:55:16.093Z,15.45
2022-08-26T21:57:44.892Z,22.27
2022-08-26T22:00:15.834Z,15.60
2022-08-26T22:02:45.959Z,19.52
2022-08-26T22:05:14.848Z,18.00
2022-08-26T22:07:43.611Z,21.90
2022-08-26T22:10:12.475Z,23.88
2022-08-26T22:12:41.295Z,25.08
2022-08-26T22:15:11.099Z,19.60
2022-08-26T22:17:40.543Z,36.25
2022-08-26T22:20:11.538Z,27.85
2022-08-26T22:22:45.773Z,29.73
2022-08-26T22:25:14.731Z,25.95
2022-08-26T22:27:43.406Z,21.88
2022-08-26T22:30:12.770Z,26.45
2022-08-26T22:32:41.507Z,23.58
2022-08-26T22:35:29.101Z,25.23
2022-08-26T22:37:59.150Z,28.10
2022-08-26T22:40:28.363Z,26.17
2022-08-26T22:43:00.247Z,26.10
2022-08-26T22:45:31.276Z,26.52
2022-08-26T22:48:00.274Z,21.27
2022-08-26T22:50:30.348Z,21.48
2022-08-26T22:52:59.518Z,22.75
2022-08-26T22:55:28.373Z,27.75
2022-08-26T22:57:57.070Z,21.80
2022-08-26T23:00:32.073Z,23.77
2022-08-26T23:03:01.897Z,23.98
2022-08-26T23:05:32.762Z,23.75
2022-08-26T23:08:01.869Z,26.27
2022-08-26T23:10:30.826Z,18.80
2022-08-26T23:12:59.938Z,22.42
2022-08-26T23:15:28.711Z,20.00
2022-08-26T23:17:58.432Z,24.55
2022-08-26T23:20:29.011Z,23.00
2022-08-26T23:22:59.183Z,24.23
2022-08-26T23:25:29.562Z,26.83
2022-08-26T23:27:59.812Z,21.25
2022-08-26T23:30:30.732Z,25.10
2022-08-26T23:32:59.618Z,23.88
2022-08-26T23:35:27.547Z,21.88
2022-08-26T23:37:57.788Z,19.65
2022-08-26T23:40:32.131Z,21.92
2022-08-26T23:43:03.480Z,20.63
2022-08-26T23:45:33.272Z,22.27
2022-08-26T23:48:03.093Z,23.63
2022-08-26T23:50:50.703Z,18.38
2022-08-26T23:53:21.785Z,21.45
2022-08-26T23:55:53.421Z,18.92
2022-08-26T23:58:22.523Z,23.40
